createdAt,value
2018-08-02T15:47:45.015Z,10.27
2018-08-02T15:50:13.796Z,14.10
2018-08-02T15:52:42.742Z,18.83
2018-08-02T15:55:12.027Z,11.05
2018-08-02T15:57:40.867Z,13.77
2018-08-02T16:00:10.206Z,10.77
2018-08-02T16:02:39.467Z,380.50
2018-08-02T16:05:08.570Z,300.73
2018-08-02T16:07:37.469Z,159.80
2018-08-02T16:10:06.408Z,154.07
2018-08-02T16:12:37.373Z,168.50
2018-08-02T16:15:06.531Z,153.87
2018-08-02T16:17:35.787Z,175.07
2018-08-02T16:20:05.123Z,159.00
2018-08-02T16:22:33.993Z,168.00
2018-08-02T16:25:02.927Z,272.57
2018-08-02T16:27:31.801Z,399.48
2018-08-02T16:30:00.843Z,68.50
2018-08-02T16:32:29.588Z,64.63
2018-08-02T16:34:58.390Z,11.20
2018-08-02T16:37:27.088Z,12.07
2018-08-02T16:39:55.919Z,13.23
2018-08-02T16:42:24.917Z,12.83
2018-08-02T16:44:53.678Z,15.63
2018-08-02T16:47:22.711Z,12.67
2018-08-02T16:49:51.963Z,15.60
2018-08-02T16:52:20.572Z,13.13
2018-08-02T16:54:50.466Z,13.17
2018-08-02T16:57:19.823Z,11.83
2018-08-02T16:59:53.766Z,13.85
2018-08-02T17:02:22.992Z,13.13
2018-08-02T17:04:53.481Z,12.83
2018-08-02T17:07:22.590Z,13.20
2018-08-02T17:09:51.514Z,12.00
2018-08-02T17:12:22.482Z,11.20
2018-08-02T17:14:51.556Z,13.07
2018-08-02T17:17:55.796Z,11.83
2018-08-02T17:23:06.059Z,1999.90
2018-08-02T17:25:35.055Z,1999.90
2018-08-02T17:28:03.904Z,1999.90
2018-08-02T17:30:33.026Z,1999.90
2018-08-02T17:33:01.875Z,1999.90
2018-08-02T17:35:31.068Z,1999.90
2018-08-02T17:38:00.070Z,1999.90
2018-08-02T17:40:28.942Z,1999.90
2018-08-02T17:42:58.419Z,1999.90
2018-08-02T17:45:28.170Z,1999.90
2018-08-02T17:47:57.935Z,1999.90
2018-08-02T17:50:49.441Z,1999.90
2018-08-02T17:53:22.951Z,1999.90
2018-08-02T17:55:54.924Z,1999.90
2018-08-02T17:58:25.333Z,1999.90
2018-08-02T18:00:56.730Z,1999.90
2018-08-02T18:03:26.408Z,723.70
2018-08-02T18:05:59.873Z,747.00
2018-08-02T18:08:40.712Z,679.57
2018-08-02T18:11:10.382Z,805.60
2018-08-02T18:13:40.673Z,668.97
2018-08-02T18:16:16.244Z,716.80
2018-08-02T18:18:47.806Z,156.73
2018-08-02T18:21:17.343Z,14.00
2018-08-02T18:23:46.880Z,15.00
2018-08-02T18:26:17.367Z,23.20
2018-08-02T18:28:47.882Z,24.63
2018-08-02T18:31:22.156Z,17.10
2018-08-02T18:34:00.058Z,109.87
2018-08-02T18:36:30.416Z,13.67
2018-08-02T18:39:01.966Z,17.47
2018-08-02T18:41:35.155Z,11.50
2018-08-02T18:44:05.856Z,46.87
2018-08-02T18:49:21.454Z,13.57
2018-08-02T18:51:56.229Z,13.48
2018-08-02T18:57:07.864Z,18.07
2018-08-02T18:59:48.593Z,27.67
2018-08-02T19:02:29.168Z,29.80
2018-08-02T19:05:06.330Z,23.57
2018-08-02T19:07:38.109Z,15.03
2018-08-02T19:10:08.841Z,14.37
2018-08-02T19:12:38.939Z,15.73
2018-08-02T19:15:09.074Z,13.27
2018-08-02T19:17:48.373Z,12.57
2018-08-02T19:20:29.021Z,16.87
2018-08-02T19:23:06.290Z,14.65
2018-08-02T19:25:39.288Z,13.03
2018-08-02T19:28:13.203Z,14.80
2018-08-02T19:30:46.104Z,13.07
2018-08-02T19:40:40.250Z,14.53
2018-08-02T19:43:17.136Z,15.38
2018-08-02T19:45:46.287Z,13.67
2018-08-02T19:48:29.240Z,15.30
2018-08-02T20:00:03.319Z,14.20
2018-08-02T20:02:33.185Z,15.13
2018-08-02T20:05:03.627Z,14.00
2018-08-02T20:07:36.576Z,13.33
2018-08-02T20:10:08.449Z,13.73
2018-08-02T20:12:43.180Z,15.27
2018-08-02T20:30:30.335Z,15.23
2018-08-02T20:33:01.685Z,14.77
2018-08-02T20:35:45.377Z,16.50
2018-08-02T20:38:15.566Z,15.50
2018-08-02T20:40:45.923Z,14.90
2018-08-02T20:43:18.308Z,15.07
2018-08-02T20:46:03.185Z,11.83
2018-08-02T20:48:41.784Z,15.30
2018-08-02T20:51:15.927Z,14.20
2018-08-02T20:54:07.177Z,17.97
2018-08-02T20:56:36.674Z,15.03
2018-08-02T20:59:12.837Z,14.27
2018-08-02T21:01:42.054Z,13.83
2018-08-02T21:04:13.783Z,14.20
2018-08-02T21:06:43.431Z,12.60
2018-08-02T21:09:13.097Z,14.60
2018-08-02T21:11:42.976Z,14.25
2018-08-02T21:14:13.045Z,14.25
2018-08-02T21:16:45.315Z,14.13
2018-08-02T21:19:36.841Z,13.20
2018-08-02T21:24:47.292Z,13.80
2018-08-02T21:27:17.294Z,12.63
2018-08-02T21:37:10.482Z,16.13
2018-08-02T21:39:48.714Z,16.97
2018-08-02T21:42:19.667Z,13.73
2018-08-02T21:44:55.089Z,16.23
2018-08-02T21:47:28.950Z,14.23
2018-08-02T21:49:58.383Z,16.63
2018-08-02T21:52:27.806Z,14.60
2018-08-02T21:54:57.915Z,15.07
2018-08-02T21:57:27.849Z,22.90
2018-08-02T21:59:57.141Z,16.00
2018-08-02T22:02:26.306Z,15.77
2018-08-02T22:04:56.666Z,17.20
2018-08-02T22:07:32.750Z,17.80
2018-08-02T22:10:09.000Z,16.12
2018-08-02T22:12:45.740Z,16.13
2018-08-02T22:15:20.720Z,15.83
2018-08-02T22:17:53.164Z,16.97
2018-08-02T22:20:25.708Z,16.25
2018-08-02T22:22:55.180Z,16.10
2018-08-02T22:25:36.062Z,16.70
2018-08-02T22:28:05.773Z,15.57
2018-08-02T22:30:36.806Z,16.20
2018-08-02T22:35:46.833Z,16.83
2018-08-02T22:38:19.705Z,16.20
2018-08-02T22:41:06.300Z,16.17
2018-08-02T22:43:35.474Z,15.40
2018-08-02T22:46:04.487Z,15.87
2018-08-02T22:48:33.690Z,16.23
2018-08-02T22:51:02.737Z,13.67
2018-08-02T22:53:31.683Z,16.70
2018-08-02T22:56:00.838Z,15.63
2018-08-02T22:58:30.765Z,15.98
2018-08-02T23:01:01.752Z,17.20
2018-08-02T23:03:36.413Z,16.37
2018-08-02T23:06:13.758Z,16.07
2018-08-02T23:08:43.450Z,15.70
2018-08-02T23:11:13.545Z,16.40
2018-08-02T23:13:42.348Z,16.70
2018-08-02T23:16:13.143Z,15.87
2018-08-02T23:18:48.113Z,14.70
2018-08-02T23:21:17.485Z,14.97
2018-08-02T23:23:50.801Z,16.77
2018-08-02T23:26:21.676Z,19.93
2018-08-02T23:28:50.845Z,16.77
2018-08-02T23:31:20.648Z,16.40
2018-08-02T23:33:59.240Z,15.40
2018-08-02T23:36:28.107Z,16.80
2018-08-02T23:38:57.236Z,17.80
2018-08-02T23:41:26.421Z,15.10
2018-08-02T23:43:57.428Z,16.90
2018-08-02T23:46:26.506Z,15.43
2018-08-02T23:48:56.037Z,15.25
2018-08-02T23:51:25.305Z,16.33
2018-08-02T23:53:54.840Z,16.03
2018-08-02T23:56:27.584Z,18.10
2018-08-02T23:59:04.695Z,16.22
